AAY3184 KLAS-KATW
Flight info
| Callsign | AAY3184 |
|---|---|
| Flight time | 3h 9m |
| Altitude | 37000 |
| Route | GIDGT3 TUKRR DVC J146 HBU J128 HCT OBH FOD DBQ CORIR OSH |
| Aircraft | A319/M-SDE3FGHIRWY/LB1 |
Departure
| Time | 2026-05-07 15:21 |
|---|---|
| Airport | Harry Reid International Airport (KLAS) |
Arrival
| Time | 2026-05-07 18:30 |
|---|---|
| Airport | Appleton International Airport (KATW) |
| Time | Latitude | Longitude | Altitude | Speed | Heading |
|---|---|---|---|---|---|
| 2026-05-07 14:48 | 36.08675 | -115.15369 | 2097 ft | 0 kts | 116° |
| 2026-05-07 15:10 | 36.08677 | -115.15375 | 2097 ft | 3 kts | 116° |
| 2026-05-07 15:10 | 36.08689 | -115.15404 | 2097 ft | 4 kts | 116° |
| 2026-05-07 15:10 | 36.08698 | -115.15427 | 2097 ft | 4 kts | 116° |
| 2026-05-07 15:10 | 36.08707 | -115.15450 | 2097 ft | 2 kts | 116° |
| 2026-05-07 15:11 | 36.08707 | -115.15451 | 2097 ft | 0 kts | 116° |
| 2026-05-07 15:12 | 36.08705 | -115.15448 | 2097 ft | 2 kts | 130° |
| 2026-05-07 15:12 | 36.08685 | -115.15462 | 2097 ft | 6 kts | 230° |
| 2026-05-07 15:13 | 36.08639 | -115.15533 | 2098 ft | 14 kts | 228° |
| 2026-05-07 15:13 | 36.08545 | -115.15604 | 2100 ft | 17 kts | 192° |
| 2026-05-07 15:13 | 36.08437 | -115.15556 | 2099 ft | 17 kts | 155° |
| 2026-05-07 15:13 | 36.08330 | -115.15495 | 2098 ft | 17 kts | 155° |
| 2026-05-07 15:14 | 36.08222 | -115.15434 | 2097 ft | 17 kts | 155° |
| 2026-05-07 15:14 | 36.08108 | -115.15429 | 2098 ft | 17 kts | 194° |
| 2026-05-07 15:14 | 36.07999 | -115.15398 | 2098 ft | 17 kts | 154° |
| 2026-05-07 15:14 | 36.07898 | -115.15335 | 2099 ft | 16 kts | 135° |
| 2026-05-07 15:15 | 36.07878 | -115.15205 | 2099 ft | 17 kts | 91° |
| 2026-05-07 15:15 | 36.07874 | -115.15047 | 2098 ft | 20 kts | 93° |
| 2026-05-07 15:15 | 36.07862 | -115.14869 | 2098 ft | 22 kts | 95° |
| 2026-05-07 15:15 | 36.07849 | -115.14677 | 2097 ft | 23 kts | 95° |
| 2026-05-07 15:16 | 36.07835 | -115.14486 | 2096 ft | 22 kts | 95° |
| 2026-05-07 15:16 | 36.07828 | -115.14297 | 2096 ft | 22 kts | 91° |
| 2026-05-07 15:16 | 36.07827 | -115.14109 | 2094 ft | 22 kts | 90° |
| 2026-05-07 15:16 | 36.07827 | -115.13914 | 2093 ft | 22 kts | 90° |
| 2026-05-07 15:17 | 36.07827 | -115.13724 | 2092 ft | 22 kts | 90° |
| 2026-05-07 15:17 | 36.07827 | -115.13534 | 2091 ft | 22 kts | 90° |
| 2026-05-07 15:17 | 36.07827 | -115.13341 | 2089 ft | 23 kts | 90° |
| 2026-05-07 15:17 | 36.07827 | -115.13137 | 2083 ft | 25 kts | 90° |
| 2026-05-07 15:18 | 36.07827 | -115.12909 | 2074 ft | 28 kts | 90° |
| 2026-05-07 15:18 | 36.07828 | -115.12755 | 2068 ft | 27 kts | 90° |
| 2026-05-07 15:18 | 36.07828 | -115.12532 | 2060 ft | 23 kts | 90° |
| 2026-05-07 15:18 | 36.07829 | -115.12356 | 2056 ft | 17 kts | 90° |
| 2026-05-07 15:19 | 36.07803 | -115.12230 | 2052 ft | 16 kts | 124° |
| 2026-05-07 15:19 | 36.07726 | -115.12133 | 2051 ft | 14 kts | 154° |
| 2026-05-07 15:19 | 36.07644 | -115.12156 | 2048 ft | 11 kts | 242° |
| 2026-05-07 15:19 | 36.07643 | -115.12203 | 2049 ft | 0 kts | 273° |
| 2026-05-07 15:20 | 36.07643 | -115.12240 | 2050 ft | 22 kts | 270° |
| 2026-05-07 15:20 | 36.07641 | -115.12720 | 2068 ft | 87 kts | 270° |
| 2026-05-07 15:20 | 36.07640 | -115.13705 | 2093 ft | 140 kts | 270° |
| 2026-05-07 15:21 | 36.07639 | -115.15090 | 2123 ft | 179 kts | 270° |
| 2026-05-07 15:21 | 36.07657 | -115.16597 | 2757 ft | 172 kts | 272° |
| 2026-05-07 15:21 | 36.07679 | -115.18078 | 3345 ft | 173 kts | 270° |
| 2026-05-07 15:21 | 36.07673 | -115.19577 | 3829 ft | 178 kts | 271° |
| 2026-05-07 15:22 | 36.07665 | -115.21193 | 4075 ft | 199 kts | 271° |
| 2026-05-07 15:22 | 36.07660 | -115.23008 | 4296 ft | 221 kts | 271° |
| 2026-05-07 15:22 | 36.07663 | -115.24966 | 4733 ft | 232 kts | 274° |
| 2026-05-07 15:22 | 36.08077 | -115.26882 | 5414 ft | 232 kts | 302° |
| 2026-05-07 15:23 | 36.09160 | -115.28360 | 5962 ft | 242 kts | 329° |
| 2026-05-07 15:23 | 36.10765 | -115.29078 | 6498 ft | 251 kts | 349° |
| 2026-05-07 15:23 | 36.12493 | -115.29522 | 7175 ft | 256 kts | 352° |
| 2026-05-07 15:23 | 36.14272 | -115.29406 | 7931 ft | 259 kts | 17° |
| 2026-05-07 15:24 | 36.15886 | -115.28380 | 8575 ft | 271 kts | 40° |
| 2026-05-07 15:24 | 36.17053 | -115.26498 | 9143 ft | 283 kts | 61° |
| 2026-05-07 15:24 | 36.17830 | -115.24240 | 9936 ft | 288 kts | 69° |
| 2026-05-07 15:24 | 36.18560 | -115.21877 | 10441 ft | 303 kts | 68° |
| 2026-05-07 15:25 | 36.19276 | -115.19320 | 10658 ft | 327 kts | 75° |
| 2026-05-07 15:25 | 36.19610 | -115.16463 | 11097 ft | 342 kts | 86° |
| 2026-05-07 15:25 | 36.19615 | -115.13502 | 11770 ft | 346 kts | 88° |
| 2026-05-07 15:25 | 36.19613 | -115.10514 | 12454 ft | 349 kts | 88° |
| 2026-05-07 15:26 | 36.19617 | -115.07497 | 13170 ft | 351 kts | 88° |
| 2026-05-07 15:26 | 36.19622 | -115.04461 | 13870 ft | 354 kts | 88° |
| 2026-05-07 15:26 | 36.19624 | -115.01403 | 14484 ft | 357 kts | 88° |
| 2026-05-07 15:26 | 36.19625 | -114.98319 | 15095 ft | 360 kts | 87° |
| 2026-05-07 15:27 | 36.19626 | -114.95205 | 15716 ft | 363 kts | 87° |
| 2026-05-07 15:27 | 36.19625 | -114.92072 | 16295 ft | 366 kts | 87° |
| 2026-05-07 15:27 | 36.19623 | -114.88900 | 16870 ft | 370 kts | 87° |
| 2026-05-07 15:27 | 36.19618 | -114.85709 | 17481 ft | 372 kts | 87° |
| 2026-05-07 15:28 | 36.19615 | -114.82502 | 18092 ft | 374 kts | 87° |
| 2026-05-07 15:28 | 36.19612 | -114.79288 | 18620 ft | 377 kts | 87° |
| 2026-05-07 15:28 | 36.19608 | -114.76019 | 19120 ft | 380 kts | 87° |
| 2026-05-07 15:28 | 36.19599 | -114.72772 | 19602 ft | 383 kts | 87° |
| 2026-05-07 15:29 | 36.19588 | -114.69416 | 20082 ft | 387 kts | 87° |
| 2026-05-07 15:29 | 36.19578 | -114.66118 | 20557 ft | 390 kts | 87° |
| 2026-05-07 15:29 | 36.19570 | -114.62745 | 21043 ft | 394 kts | 87° |
| 2026-05-07 15:29 | 36.19562 | -114.59344 | 21516 ft | 397 kts | 87° |
| 2026-05-07 15:30 | 36.19554 | -114.55911 | 21979 ft | 400 kts | 87° |
| 2026-05-07 15:30 | 36.19545 | -114.52452 | 22424 ft | 404 kts | 87° |
| 2026-05-07 15:30 | 36.19538 | -114.48963 | 22871 ft | 407 kts | 87° |
| 2026-05-07 15:30 | 36.19527 | -114.45439 | 23317 ft | 410 kts | 87° |
| 2026-05-07 15:31 | 36.19511 | -114.41896 | 23725 ft | 413 kts | 87° |
| 2026-05-07 15:31 | 36.19494 | -114.38327 | 24100 ft | 416 kts | 87° |
| 2026-05-07 15:31 | 36.19479 | -114.34739 | 24465 ft | 418 kts | 87° |
| 2026-05-07 15:31 | 36.19460 | -114.31133 | 24830 ft | 420 kts | 87° |
| 2026-05-07 15:32 | 36.19439 | -114.27510 | 25201 ft | 422 kts | 87° |
| 2026-05-07 15:32 | 36.19481 | -114.23871 | 25565 ft | 422 kts | 82° |
| 2026-05-07 15:32 | 36.19868 | -114.20269 | 25925 ft | 423 kts | 78° |
| 2026-05-07 15:32 | 36.20306 | -114.16663 | 26298 ft | 425 kts | 78° |
| 2026-05-07 15:33 | 36.20744 | -114.13044 | 26676 ft | 426 kts | 78° |
| 2026-05-07 15:33 | 36.21182 | -114.09407 | 27023 ft | 428 kts | 79° |
| 2026-05-07 15:33 | 36.21621 | -114.05747 | 27386 ft | 430 kts | 79° |
| 2026-05-07 15:33 | 36.22059 | -114.02075 | 27721 ft | 432 kts | 79° |
| 2026-05-07 15:34 | 36.22497 | -113.98384 | 28065 ft | 435 kts | 79° |
| 2026-05-07 15:34 | 36.22935 | -113.94667 | 28391 ft | 437 kts | 79° |
| 2026-05-07 15:34 | 36.23372 | -113.90941 | 28716 ft | 439 kts | 79° |
| 2026-05-07 15:34 | 36.23810 | -113.87194 | 29047 ft | 441 kts | 79° |
| 2026-05-07 15:35 | 36.24248 | -113.83424 | 29355 ft | 442 kts | 79° |
| 2026-05-07 15:35 | 36.24689 | -113.79644 | 29660 ft | 444 kts | 79° |
| 2026-05-07 15:35 | 36.25134 | -113.75853 | 29956 ft | 446 kts | 79° |
| 2026-05-07 15:35 | 36.25581 | -113.72041 | 30232 ft | 448 kts | 79° |
| 2026-05-07 15:36 | 36.26028 | -113.68211 | 30477 ft | 450 kts | 79° |
| 2026-05-07 15:36 | 36.26467 | -113.64419 | 30727 ft | 451 kts | 79° |
| 2026-05-07 15:36 | 36.26906 | -113.60574 | 31077 ft | 450 kts | 79° |
| 2026-05-07 15:36 | 36.27342 | -113.56742 | 31453 ft | 448 kts | 79° |
| 2026-05-07 15:37 | 36.27775 | -113.52922 | 31829 ft | 446 kts | 79° |
| 2026-05-07 15:37 | 36.28207 | -113.49122 | 32222 ft | 445 kts | 79° |
| 2026-05-07 15:37 | 36.28638 | -113.45334 | 32599 ft | 443 kts | 79° |
| 2026-05-07 15:37 | 36.29066 | -113.41564 | 32985 ft | 441 kts | 79° |
| 2026-05-07 15:38 | 36.29493 | -113.37803 | 33336 ft | 440 kts | 79° |
| 2026-05-07 15:38 | 36.29916 | -113.34049 | 33717 ft | 439 kts | 79° |
| 2026-05-07 15:38 | 36.30335 | -113.30306 | 34097 ft | 438 kts | 79° |
| 2026-05-07 15:38 | 36.30753 | -113.26569 | 34428 ft | 436 kts | 79° |
| 2026-05-07 15:39 | 36.31310 | -113.22898 | 34740 ft | 432 kts | 71° |
| 2026-05-07 15:39 | 36.32292 | -113.19400 | 35027 ft | 428 kts | 64° |
| 2026-05-07 15:39 | 36.33494 | -113.16024 | 35286 ft | 427 kts | 64° |
| 2026-05-07 15:39 | 36.34692 | -113.12649 | 35543 ft | 427 kts | 64° |
| 2026-05-07 15:40 | 36.35884 | -113.09277 | 35807 ft | 427 kts | 64° |
| 2026-05-07 15:40 | 36.37073 | -113.05907 | 36034 ft | 427 kts | 64° |
| 2026-05-07 15:40 | 36.38261 | -113.02524 | 36250 ft | 427 kts | 64° |
| 2026-05-07 15:40 | 36.39442 | -112.99145 | 36462 ft | 427 kts | 64° |
| 2026-05-07 15:41 | 36.40621 | -112.95768 | 36712 ft | 426 kts | 64° |
| 2026-05-07 15:41 | 36.41803 | -112.92397 | 36945 ft | 426 kts | 64° |
| 2026-05-07 15:41 | 36.42982 | -112.89032 | 37084 ft | 426 kts | 64° |
| 2026-05-07 15:41 | 36.44162 | -112.85653 | 37106 ft | 425 kts | 64° |
| 2026-05-07 15:42 | 36.46512 | -112.78921 | 37112 ft | 424 kts | 64° |
| 2026-05-07 15:42 | 36.48861 | -112.72179 | 37120 ft | 426 kts | 64° |
| 2026-05-07 15:43 | 36.51216 | -112.65415 | 37109 ft | 427 kts | 64° |
| 2026-05-07 15:43 | 36.53568 | -112.58645 | 37109 ft | 426 kts | 64° |
| 2026-05-07 15:44 | 36.55892 | -112.51916 | 37104 ft | 426 kts | 64° |
| 2026-05-07 15:44 | 36.58231 | -112.45135 | 37099 ft | 426 kts | 64° |
| 2026-05-07 15:45 | 36.60570 | -112.38350 | 37093 ft | 427 kts | 64° |
| 2026-05-07 15:45 | 36.62908 | -112.31540 | 37095 ft | 428 kts | 64° |
| 2026-05-07 15:46 | 36.66418 | -112.21298 | 37098 ft | 429 kts | 64° |
| 2026-05-07 15:47 | 36.68760 | -112.14461 | 37095 ft | 429 kts | 64° |
| 2026-05-07 15:47 | 36.71100 | -112.07619 | 37098 ft | 430 kts | 64° |
| 2026-05-07 15:48 | 36.73439 | -112.00752 | 37095 ft | 430 kts | 64° |
| 2026-05-07 15:48 | 36.75777 | -111.93872 | 37097 ft | 431 kts | 64° |
| 2026-05-07 15:49 | 36.78106 | -111.86984 | 37100 ft | 432 kts | 64° |
| 2026-05-07 15:49 | 36.80437 | -111.80079 | 37122 ft | 432 kts | 64° |
| 2026-05-07 15:50 | 36.82759 | -111.73170 | 37109 ft | 432 kts | 65° |
| 2026-05-07 15:50 | 36.85079 | -111.66238 | 37101 ft | 433 kts | 65° |
| 2026-05-07 15:51 | 36.87499 | -111.59351 | 37101 ft | 433 kts | 63° |
| 2026-05-07 15:51 | 36.88751 | -111.55988 | 37238 ft | 432 kts | 62° |
| 2026-05-07 15:51 | 36.90028 | -111.52593 | 37244 ft | 432 kts | 62° |
| 2026-05-07 15:52 | 36.92564 | -111.45786 | 37243 ft | 432 kts | 63° |
| 2026-05-07 15:52 | 36.95061 | -111.38947 | 37243 ft | 432 kts | 63° |
| 2026-05-07 15:53 | 36.97532 | -111.32097 | 37229 ft | 432 kts | 63° |
| 2026-05-07 15:53 | 37.00008 | -111.25236 | 37199 ft | 432 kts | 63° |
| 2026-05-07 15:54 | 37.02490 | -111.18389 | 37169 ft | 432 kts | 63° |
| 2026-05-07 15:54 | 37.04966 | -111.11531 | 37145 ft | 432 kts | 63° |
| 2026-05-07 15:55 | 37.07434 | -111.04663 | 37112 ft | 433 kts | 63° |
| 2026-05-07 15:55 | 37.09911 | -110.97779 | 37110 ft | 433 kts | 63° |
| 2026-05-07 15:56 | 37.12376 | -110.90893 | 37109 ft | 433 kts | 63° |
| 2026-05-07 15:56 | 37.14827 | -110.84039 | 37115 ft | 434 kts | 63° |
| 2026-05-07 15:57 | 37.17295 | -110.77136 | 37119 ft | 434 kts | 63° |
| 2026-05-07 15:57 | 37.19762 | -110.70222 | 37115 ft | 435 kts | 63° |
| 2026-05-07 15:58 | 37.22218 | -110.63290 | 37115 ft | 435 kts | 63° |
| 2026-05-07 15:58 | 37.24674 | -110.56337 | 37120 ft | 436 kts | 63° |
| 2026-05-07 15:59 | 37.27131 | -110.49385 | 37119 ft | 435 kts | 63° |
| 2026-05-07 15:59 | 37.29585 | -110.42418 | 37132 ft | 436 kts | 63° |
| 2026-05-07 16:00 | 37.32044 | -110.35444 | 37131 ft | 437 kts | 63° |
| 2026-05-07 16:00 | 37.34478 | -110.28502 | 37140 ft | 437 kts | 63° |
| 2026-05-07 16:01 | 37.36927 | -110.21515 | 37136 ft | 438 kts | 63° |
| 2026-05-07 16:01 | 37.39379 | -110.14506 | 37141 ft | 438 kts | 63° |
| 2026-05-07 16:02 | 37.41829 | -110.07482 | 37145 ft | 439 kts | 63° |
| 2026-05-07 16:02 | 37.44274 | -110.00444 | 37146 ft | 439 kts | 63° |
| 2026-05-07 16:03 | 37.46718 | -109.93393 | 37150 ft | 440 kts | 63° |
| 2026-05-07 16:03 | 37.49154 | -109.86331 | 37150 ft | 440 kts | 64° |
| 2026-05-07 16:04 | 37.51598 | -109.79263 | 37165 ft | 440 kts | 63° |
| 2026-05-07 16:04 | 37.54036 | -109.72183 | 37152 ft | 441 kts | 64° |
| 2026-05-07 16:05 | 37.56474 | -109.65083 | 37260 ft | 441 kts | 64° |
| 2026-05-07 16:05 | 37.58897 | -109.58024 | 37279 ft | 442 kts | 64° |
| 2026-05-07 16:06 | 37.61334 | -109.50906 | 37280 ft | 442 kts | 64° |
| 2026-05-07 16:06 | 37.63771 | -109.43784 | 37290 ft | 442 kts | 64° |
| 2026-05-07 16:07 | 37.66199 | -109.36647 | 37269 ft | 443 kts | 64° |
| 2026-05-07 16:07 | 37.68218 | -109.30695 | 37247 ft | 444 kts | 64° |
| 2026-05-07 16:08 | 37.70647 | -109.23533 | 37226 ft | 444 kts | 64° |
| 2026-05-07 16:08 | 37.73079 | -109.16360 | 37206 ft | 444 kts | 64° |
| 2026-05-07 16:09 | 37.75503 | -109.09178 | 37204 ft | 445 kts | 64° |
| 2026-05-07 16:09 | 37.77923 | -109.01970 | 37201 ft | 445 kts | 64° |
| 2026-05-07 16:10 | 37.80335 | -108.94754 | 37210 ft | 446 kts | 64° |
| 2026-05-07 16:10 | 37.82786 | -108.87543 | 37204 ft | 446 kts | 63° |
| 2026-05-07 16:11 | 37.85319 | -108.80378 | 37207 ft | 446 kts | 62° |
| 2026-05-07 16:11 | 37.87853 | -108.73214 | 37218 ft | 447 kts | 62° |
| 2026-05-07 16:12 | 37.90356 | -108.66048 | 37210 ft | 448 kts | 63° |
| 2026-05-07 16:12 | 37.92861 | -108.58824 | 37207 ft | 448 kts | 63° |
| 2026-05-07 16:13 | 37.95362 | -108.51593 | 37204 ft | 448 kts | 63° |
| 2026-05-07 16:13 | 37.97867 | -108.44348 | 37205 ft | 449 kts | 63° |
| 2026-05-07 16:14 | 38.00373 | -108.37101 | 37203 ft | 449 kts | 63° |
| 2026-05-07 16:14 | 38.02880 | -108.29829 | 37198 ft | 450 kts | 63° |
| 2026-05-07 16:15 | 38.05380 | -108.22543 | 37197 ft | 451 kts | 63° |
| 2026-05-07 16:15 | 38.07887 | -108.15235 | 37194 ft | 451 kts | 63° |
| 2026-05-07 16:16 | 38.10388 | -108.07921 | 37195 ft | 452 kts | 63° |
| 2026-05-07 16:16 | 38.12882 | -108.00600 | 37200 ft | 452 kts | 63° |
| 2026-05-07 16:17 | 38.15375 | -107.93269 | 37202 ft | 452 kts | 63° |
| 2026-05-07 16:17 | 38.17857 | -107.85927 | 37217 ft | 452 kts | 63° |
| 2026-05-07 16:18 | 38.20338 | -107.78585 | 37210 ft | 452 kts | 63° |
| 2026-05-07 16:18 | 38.22804 | -107.71282 | 37257 ft | 453 kts | 63° |
| 2026-05-07 16:19 | 38.25290 | -107.63911 | 37242 ft | 453 kts | 63° |
| 2026-05-07 16:19 | 38.27768 | -107.56523 | 37255 ft | 454 kts | 63° |
| 2026-05-07 16:20 | 38.30241 | -107.49121 | 37254 ft | 454 kts | 63° |
| 2026-05-07 16:20 | 38.32716 | -107.41715 | 37274 ft | 455 kts | 63° |
| 2026-05-07 16:21 | 38.35188 | -107.34296 | 37277 ft | 455 kts | 63° |
| 2026-05-07 16:21 | 38.37661 | -107.26861 | 37297 ft | 456 kts | 63° |
| 2026-05-07 16:22 | 38.40130 | -107.19419 | 37317 ft | 456 kts | 63° |
| 2026-05-07 16:22 | 38.42594 | -107.11957 | 37345 ft | 457 kts | 63° |
| 2026-05-07 16:23 | 38.45113 | -107.04511 | 37373 ft | 454 kts | 58° |
| 2026-05-07 16:23 | 38.48498 | -106.97777 | 37355 ft | 451 kts | 51° |
| 2026-05-07 16:24 | 38.52008 | -106.91184 | 37355 ft | 452 kts | 52° |
| 2026-05-07 16:24 | 38.55520 | -106.84533 | 37337 ft | 452 kts | 52° |
| 2026-05-07 16:25 | 38.59035 | -106.77860 | 37355 ft | 452 kts | 51° |
| 2026-05-07 16:25 | 38.62554 | -106.71186 | 37332 ft | 452 kts | 51° |
| 2026-05-07 16:26 | 38.66073 | -106.64503 | 37327 ft | 453 kts | 51° |
| 2026-05-07 16:26 | 38.69586 | -106.57811 | 37287 ft | 454 kts | 51° |
| 2026-05-07 16:27 | 38.73102 | -106.51085 | 37282 ft | 454 kts | 52° |
| 2026-05-07 16:27 | 38.76617 | -106.44344 | 37267 ft | 455 kts | 52° |
| 2026-05-07 16:28 | 38.80128 | -106.37593 | 37273 ft | 455 kts | 52° |
| 2026-05-07 16:28 | 38.83637 | -106.30846 | 37300 ft | 455 kts | 51° |
| 2026-05-07 16:29 | 38.87150 | -106.24081 | 37301 ft | 456 kts | 51° |
| 2026-05-07 16:29 | 38.90636 | -106.17339 | 37302 ft | 456 kts | 51° |
| 2026-05-07 16:30 | 38.94143 | -106.10552 | 37288 ft | 456 kts | 51° |
| 2026-05-07 16:30 | 38.97668 | -106.03721 | 37241 ft | 455 kts | 51° |
| 2026-05-07 16:31 | 39.01147 | -105.96973 | 37207 ft | 457 kts | 50° |
| 2026-05-07 16:31 | 39.02920 | -105.93516 | 37104 ft | 457 kts | 50° |
| 2026-05-07 16:31 | 39.04669 | -105.90098 | 37102 ft | 458 kts | 50° |
| 2026-05-07 16:32 | 39.08156 | -105.83289 | 37104 ft | 459 kts | 50° |
| 2026-05-07 16:32 | 39.11673 | -105.76420 | 37120 ft | 460 kts | 50° |
| 2026-05-07 16:33 | 39.15190 | -105.69535 | 37147 ft | 460 kts | 50° |
| 2026-05-07 16:33 | 39.18706 | -105.62630 | 37162 ft | 461 kts | 50° |
| 2026-05-07 16:34 | 39.22228 | -105.55686 | 37129 ft | 465 kts | 50° |
| 2026-05-07 16:34 | 39.25774 | -105.48690 | 37110 ft | 467 kts | 50° |
| 2026-05-07 16:35 | 39.29332 | -105.41655 | 37111 ft | 469 kts | 50° |
| 2026-05-07 16:35 | 39.32901 | -105.34583 | 37096 ft | 470 kts | 50° |
| 2026-05-07 16:36 | 39.36474 | -105.27495 | 37088 ft | 471 kts | 51° |
| 2026-05-07 16:36 | 39.40040 | -105.20397 | 37101 ft | 470 kts | 52° |
| 2026-05-07 16:37 | 39.43567 | -105.13351 | 37115 ft | 469 kts | 51° |
| 2026-05-07 16:37 | 39.47136 | -105.06219 | 37118 ft | 469 kts | 51° |
| 2026-05-07 16:38 | 39.50654 | -104.99168 | 37163 ft | 469 kts | 51° |
| 2026-05-07 16:38 | 39.54182 | -104.92075 | 37173 ft | 469 kts | 51° |
| 2026-05-07 16:39 | 39.57718 | -104.84956 | 37138 ft | 470 kts | 51° |
| 2026-05-07 16:39 | 39.61266 | -104.77809 | 37126 ft | 471 kts | 51° |
| 2026-05-07 16:40 | 39.64808 | -104.70660 | 37108 ft | 472 kts | 52° |
| 2026-05-07 16:40 | 39.68270 | -104.63417 | 37103 ft | 476 kts | 58° |
| 2026-05-07 16:41 | 39.70550 | -104.55262 | 37119 ft | 484 kts | 70° |
| 2026-05-07 16:41 | 39.72413 | -104.46900 | 37120 ft | 484 kts | 69° |
| 2026-05-07 16:42 | 39.74300 | -104.38494 | 37109 ft | 484 kts | 69° |
| 2026-05-07 16:42 | 39.76170 | -104.30095 | 37090 ft | 484 kts | 70° |
| 2026-05-07 16:43 | 39.78029 | -104.21680 | 37067 ft | 484 kts | 70° |
| 2026-05-07 16:43 | 39.79887 | -104.13251 | 37034 ft | 485 kts | 70° |
| 2026-05-07 16:44 | 39.81744 | -104.04809 | 37004 ft | 486 kts | 70° |
| 2026-05-07 16:44 | 39.83597 | -103.96361 | 37004 ft | 486 kts | 70° |
| 2026-05-07 16:45 | 39.85446 | -103.87894 | 37000 ft | 486 kts | 70° |
| 2026-05-07 16:45 | 39.87272 | -103.79471 | 37011 ft | 487 kts | 70° |
| 2026-05-07 16:46 | 39.89104 | -103.70973 | 36985 ft | 488 kts | 70° |
| 2026-05-07 16:46 | 39.90941 | -103.62457 | 36990 ft | 488 kts | 70° |
| 2026-05-07 16:47 | 39.92776 | -103.53934 | 36988 ft | 489 kts | 70° |
| 2026-05-07 16:47 | 39.94600 | -103.45400 | 37019 ft | 490 kts | 70° |
| 2026-05-07 16:48 | 39.96424 | -103.36826 | 36992 ft | 491 kts | 70° |
| 2026-05-07 16:48 | 39.98245 | -103.28229 | 36989 ft | 492 kts | 71° |
| 2026-05-07 16:49 | 40.00056 | -103.19607 | 36988 ft | 493 kts | 71° |
| 2026-05-07 16:49 | 40.01869 | -103.10981 | 37013 ft | 494 kts | 71° |
| 2026-05-07 16:50 | 40.03684 | -103.02323 | 36987 ft | 495 kts | 71° |
| 2026-05-07 16:50 | 40.05500 | -102.93642 | 36983 ft | 496 kts | 71° |
| 2026-05-07 16:51 | 40.07299 | -102.85010 | 36978 ft | 497 kts | 71° |
| 2026-05-07 16:51 | 40.09094 | -102.76287 | 36993 ft | 497 kts | 71° |
| 2026-05-07 16:52 | 40.10892 | -102.67559 | 36986 ft | 498 kts | 71° |
| 2026-05-07 16:52 | 40.12692 | -102.58811 | 36978 ft | 498 kts | 71° |
| 2026-05-07 16:53 | 40.14480 | -102.50062 | 36975 ft | 499 kts | 71° |
| 2026-05-07 16:53 | 40.16263 | -102.41306 | 36970 ft | 499 kts | 71° |
| 2026-05-07 16:54 | 40.18038 | -102.32532 | 36992 ft | 499 kts | 72° |
| 2026-05-07 16:54 | 40.19509 | -102.25243 | 36987 ft | 499 kts | 72° |
| 2026-05-07 16:55 | 40.21561 | -102.15035 | 36976 ft | 499 kts | 72° |
| 2026-05-07 16:55 | 40.23315 | -102.06258 | 36973 ft | 499 kts | 72° |
| 2026-05-07 16:56 | 40.24783 | -101.98893 | 36987 ft | 499 kts | 72° |
| 2026-05-07 16:56 | 40.27396 | -101.85697 | 36982 ft | 499 kts | 72° |
| 2026-05-07 16:57 | 40.29119 | -101.76954 | 36984 ft | 499 kts | 72° |
| 2026-05-07 16:57 | 40.30848 | -101.68140 | 36983 ft | 499 kts | 72° |
| 2026-05-07 16:58 | 40.32568 | -101.59320 | 37003 ft | 500 kts | 72° |
| 2026-05-07 16:58 | 40.34286 | -101.50484 | 37004 ft | 500 kts | 72° |
| 2026-05-07 16:59 | 40.36004 | -101.41648 | 36993 ft | 500 kts | 72° |
| 2026-05-07 16:59 | 40.37715 | -101.32817 | 36984 ft | 500 kts | 72° |
| 2026-05-07 17:00 | 40.39418 | -101.23952 | 36984 ft | 501 kts | 72° |
| 2026-05-07 17:00 | 40.41108 | -101.15081 | 36975 ft | 501 kts | 73° |
| 2026-05-07 17:01 | 40.42803 | -101.06209 | 36967 ft | 502 kts | 72° |
| 2026-05-07 17:01 | 40.44491 | -100.97319 | 36970 ft | 502 kts | 73° |
| 2026-05-07 17:02 | 40.46760 | -100.88724 | 36961 ft | 495 kts | 59° |
| 2026-05-07 17:02 | 40.49798 | -100.80617 | 36956 ft | 495 kts | 59° |
| 2026-05-07 17:03 | 40.52834 | -100.72504 | 36962 ft | 495 kts | 59° |
| 2026-05-07 17:03 | 40.55861 | -100.64373 | 36959 ft | 495 kts | 59° |
| 2026-05-07 17:04 | 40.58867 | -100.56277 | 36973 ft | 495 kts | 59° |
| 2026-05-07 17:04 | 40.61879 | -100.48116 | 36954 ft | 496 kts | 59° |
| 2026-05-07 17:05 | 40.64887 | -100.39944 | 36952 ft | 496 kts | 59° |
| 2026-05-07 17:05 | 40.67891 | -100.31757 | 36976 ft | 497 kts | 59° |
| 2026-05-07 17:06 | 40.70896 | -100.23559 | 36959 ft | 496 kts | 59° |
| 2026-05-07 17:06 | 40.73896 | -100.15371 | 36973 ft | 496 kts | 59° |
| 2026-05-07 17:07 | 40.76887 | -100.07172 | 36964 ft | 496 kts | 60° |
| 2026-05-07 17:07 | 40.79869 | -99.98953 | 36966 ft | 496 kts | 60° |
| 2026-05-07 17:08 | 40.82844 | -99.90738 | 36962 ft | 496 kts | 60° |
| 2026-05-07 17:08 | 40.85826 | -99.82504 | 36985 ft | 496 kts | 60° |
| 2026-05-07 17:09 | 40.88796 | -99.74270 | 36968 ft | 497 kts | 60° |
| 2026-05-07 17:09 | 40.91764 | -99.66022 | 36962 ft | 497 kts | 60° |
| 2026-05-07 17:10 | 40.94723 | -99.57756 | 36956 ft | 497 kts | 60° |
| 2026-05-07 17:10 | 40.97674 | -99.49486 | 36972 ft | 497 kts | 60° |
| 2026-05-07 17:11 | 41.00603 | -99.41264 | 36978 ft | 496 kts | 60° |
| 2026-05-07 17:11 | 41.03545 | -99.32991 | 36963 ft | 496 kts | 60° |
| 2026-05-07 17:12 | 41.06475 | -99.24713 | 36955 ft | 496 kts | 60° |
| 2026-05-07 17:12 | 41.09400 | -99.16436 | 36949 ft | 496 kts | 60° |
| 2026-05-07 17:13 | 41.12319 | -99.08157 | 36961 ft | 496 kts | 60° |
| 2026-05-07 17:13 | 41.15230 | -98.99861 | 36939 ft | 496 kts | 60° |
| 2026-05-07 17:14 | 41.18114 | -98.91617 | 36945 ft | 496 kts | 60° |
| 2026-05-07 17:14 | 41.21018 | -98.83305 | 36942 ft | 496 kts | 60° |
| 2026-05-07 17:15 | 41.23917 | -98.74996 | 36982 ft | 496 kts | 60° |
| 2026-05-07 17:15 | 41.26803 | -98.66672 | 36983 ft | 496 kts | 60° |
| 2026-05-07 17:16 | 41.29676 | -98.58344 | 36970 ft | 495 kts | 60° |
| 2026-05-07 17:16 | 41.32547 | -98.50016 | 36959 ft | 495 kts | 60° |
| 2026-05-07 17:17 | 41.35412 | -98.41684 | 36954 ft | 495 kts | 60° |
| 2026-05-07 17:17 | 41.38264 | -98.33338 | 36974 ft | 495 kts | 61° |
| 2026-05-07 17:18 | 41.41045 | -98.24942 | 36960 ft | 496 kts | 62° |
| 2026-05-07 17:18 | 41.43775 | -98.16492 | 36953 ft | 496 kts | 62° |
| 2026-05-07 17:19 | 41.46501 | -98.08040 | 36945 ft | 496 kts | 62° |
| 2026-05-07 17:19 | 41.49233 | -97.99605 | 36947 ft | 496 kts | 62° |
| 2026-05-07 17:20 | 41.51949 | -97.91209 | 36944 ft | 494 kts | 62° |
| 2026-05-07 17:20 | 41.54660 | -97.82808 | 36942 ft | 492 kts | 62° |
| 2026-05-07 17:21 | 41.57366 | -97.74410 | 36944 ft | 492 kts | 62° |
| 2026-05-07 17:21 | 41.60066 | -97.65993 | 36942 ft | 493 kts | 62° |
| 2026-05-07 17:22 | 41.62750 | -97.57572 | 36963 ft | 493 kts | 62° |
| 2026-05-07 17:22 | 41.65437 | -97.49132 | 36944 ft | 494 kts | 62° |
| 2026-05-07 17:23 | 41.68123 | -97.40678 | 36940 ft | 494 kts | 62° |
| 2026-05-07 17:23 | 41.70812 | -97.32202 | 36939 ft | 495 kts | 62° |
| 2026-05-07 17:24 | 41.73491 | -97.23694 | 36941 ft | 495 kts | 63° |
| 2026-05-07 17:24 | 41.76158 | -97.15179 | 36948 ft | 496 kts | 63° |
| 2026-05-07 17:25 | 41.78826 | -97.06664 | 36962 ft | 496 kts | 62° |
| 2026-05-07 17:25 | 41.81492 | -96.98159 | 36957 ft | 495 kts | 62° |
| 2026-05-07 17:26 | 41.84148 | -96.89640 | 36951 ft | 495 kts | 63° |
| 2026-05-07 17:26 | 41.86787 | -96.81125 | 36968 ft | 495 kts | 62° |
| 2026-05-07 17:27 | 41.89408 | -96.72640 | 36947 ft | 495 kts | 62° |
| 2026-05-07 17:27 | 41.92047 | -96.64106 | 36939 ft | 495 kts | 62° |
| 2026-05-07 17:28 | 41.94679 | -96.55545 | 36937 ft | 496 kts | 63° |
| 2026-05-07 17:28 | 41.97301 | -96.46983 | 36936 ft | 496 kts | 63° |
| 2026-05-07 17:29 | 41.99916 | -96.38414 | 36938 ft | 496 kts | 62° |
| 2026-05-07 17:29 | 42.02527 | -96.29812 | 36962 ft | 497 kts | 63° |
| 2026-05-07 17:30 | 42.05131 | -96.21204 | 36967 ft | 497 kts | 62° |
| 2026-05-07 17:30 | 42.07733 | -96.12595 | 36953 ft | 497 kts | 62° |
| 2026-05-07 17:31 | 42.10332 | -96.03964 | 36954 ft | 497 kts | 62° |
| 2026-05-07 17:31 | 42.12934 | -95.95333 | 36944 ft | 498 kts | 62° |
| 2026-05-07 17:32 | 42.15531 | -95.86665 | 36945 ft | 499 kts | 62° |
| 2026-05-07 17:32 | 42.17682 | -95.79453 | 36948 ft | 499 kts | 62° |
| 2026-05-07 17:33 | 42.20708 | -95.69296 | 36987 ft | 500 kts | 62° |
| 2026-05-07 17:33 | 42.23289 | -95.60591 | 36975 ft | 500 kts | 62° |
| 2026-05-07 17:34 | 42.25866 | -95.51881 | 36966 ft | 500 kts | 62° |
| 2026-05-07 17:34 | 42.28440 | -95.43145 | 36995 ft | 500 kts | 62° |
| 2026-05-07 17:35 | 42.31000 | -95.34408 | 36980 ft | 500 kts | 62° |
| 2026-05-07 17:35 | 42.33538 | -95.25718 | 36959 ft | 500 kts | 62° |
| 2026-05-07 17:36 | 42.36085 | -95.16975 | 36957 ft | 500 kts | 62° |
| 2026-05-07 17:36 | 42.38632 | -95.08220 | 36957 ft | 500 kts | 62° |
| 2026-05-07 17:37 | 42.41173 | -94.99438 | 36959 ft | 501 kts | 63° |
| 2026-05-07 17:37 | 42.43697 | -94.90665 | 36965 ft | 501 kts | 63° |
| 2026-05-07 17:38 | 42.46231 | -94.81859 | 36965 ft | 502 kts | 62° |
| 2026-05-07 17:38 | 42.48767 | -94.73048 | 36967 ft | 502 kts | 63° |
| 2026-05-07 17:39 | 42.51296 | -94.64208 | 36965 ft | 503 kts | 63° |
| 2026-05-07 17:39 | 42.53813 | -94.55362 | 37010 ft | 503 kts | 63° |
| 2026-05-07 17:40 | 42.56313 | -94.46511 | 36960 ft | 502 kts | 63° |
| 2026-05-07 17:40 | 42.58805 | -94.37664 | 36961 ft | 502 kts | 63° |
| 2026-05-07 17:41 | 42.60664 | -94.28451 | 36956 ft | 513 kts | 79° |
| 2026-05-07 17:41 | 42.60657 | -94.18757 | 36995 ft | 519 kts | 91° |
| 2026-05-07 17:42 | 42.60222 | -94.08951 | 36971 ft | 520 kts | 91° |
| 2026-05-07 17:42 | 42.59784 | -93.99141 | 36970 ft | 521 kts | 91° |
| 2026-05-07 17:43 | 42.59412 | -93.90987 | 36944 ft | 521 kts | 91° |
| 2026-05-07 17:43 | 42.58958 | -93.81159 | 36961 ft | 521 kts | 91° |
| 2026-05-07 17:44 | 42.58497 | -93.71348 | 36967 ft | 522 kts | 91° |
| 2026-05-07 17:44 | 42.58020 | -93.61512 | 36963 ft | 522 kts | 91° |
| 2026-05-07 17:45 | 42.57536 | -93.51690 | 36963 ft | 523 kts | 91° |
| 2026-05-07 17:45 | 42.57045 | -93.41841 | 36964 ft | 523 kts | 91° |
| 2026-05-07 17:46 | 42.56541 | -93.31991 | 36926 ft | 523 kts | 91° |
| 2026-05-07 17:46 | 42.56026 | -93.22143 | 36936 ft | 524 kts | 92° |
| 2026-05-07 17:47 | 42.55513 | -93.12332 | 36945 ft | 525 kts | 92° |
| 2026-05-07 17:47 | 42.54992 | -93.02449 | 36969 ft | 525 kts | 92° |
| 2026-05-07 17:48 | 42.54456 | -92.92568 | 36954 ft | 526 kts | 92° |
| 2026-05-07 17:48 | 42.53911 | -92.82674 | 36950 ft | 526 kts | 92° |
| 2026-05-07 17:49 | 42.53353 | -92.72765 | 36953 ft | 527 kts | 92° |
| 2026-05-07 17:49 | 42.52785 | -92.62859 | 36985 ft | 527 kts | 92° |
| 2026-05-07 17:50 | 42.52215 | -92.52941 | 36978 ft | 528 kts | 92° |
| 2026-05-07 17:50 | 42.51634 | -92.43025 | 36970 ft | 528 kts | 92° |
| 2026-05-07 17:51 | 42.51044 | -92.33102 | 36968 ft | 528 kts | 92° |
| 2026-05-07 17:51 | 42.50445 | -92.23199 | 36974 ft | 528 kts | 93° |
| 2026-05-07 17:52 | 42.49841 | -92.13338 | 36962 ft | 528 kts | 93° |
| 2026-05-07 17:52 | 42.49232 | -92.03418 | 36967 ft | 529 kts | 93° |
| 2026-05-07 17:53 | 42.48604 | -91.93483 | 36969 ft | 529 kts | 93° |
| 2026-05-07 17:53 | 42.47969 | -91.83554 | 36972 ft | 529 kts | 93° |
| 2026-05-07 17:54 | 42.47326 | -91.73625 | 36963 ft | 529 kts | 93° |
| 2026-05-07 17:54 | 42.46671 | -91.63708 | 36959 ft | 529 kts | 94° |
| 2026-05-07 17:55 | 42.46002 | -91.53782 | 36959 ft | 529 kts | 94° |
| 2026-05-07 17:55 | 42.45339 | -91.43872 | 36965 ft | 528 kts | 94° |
| 2026-05-07 17:56 | 42.44672 | -91.33966 | 36957 ft | 528 kts | 94° |
| 2026-05-07 17:56 | 42.43988 | -91.24071 | 36945 ft | 528 kts | 94° |
| 2026-05-07 17:57 | 42.43410 | -91.15844 | 36943 ft | 528 kts | 94° |
| 2026-05-07 17:57 | 42.42580 | -91.04275 | 36951 ft | 529 kts | 94° |
| 2026-05-07 17:58 | 42.41866 | -90.94364 | 36950 ft | 529 kts | 94° |
| 2026-05-07 17:58 | 42.41141 | -90.84447 | 36934 ft | 529 kts | 95° |
| 2026-05-07 17:59 | 42.41120 | -90.74561 | 36948 ft | 524 kts | 78° |
| 2026-05-07 17:59 | 42.43158 | -90.65225 | 36940 ft | 513 kts | 59° |
| 2026-05-07 18:00 | 42.46786 | -90.57054 | 36935 ft | 505 kts | 50° |
| 2026-05-07 18:00 | 42.50595 | -90.49046 | 36950 ft | 506 kts | 51° |
| 2026-05-07 18:01 | 42.54389 | -90.41003 | 36951 ft | 506 kts | 51° |
| 2026-05-07 18:01 | 42.58188 | -90.32957 | 36959 ft | 507 kts | 51° |
| 2026-05-07 18:02 | 42.63870 | -90.20929 | 36952 ft | 505 kts | 52° |
| 2026-05-07 18:03 | 42.67648 | -90.12885 | 36947 ft | 504 kts | 52° |
| 2026-05-07 18:03 | 42.71409 | -90.04846 | 36948 ft | 504 kts | 52° |
| 2026-05-07 18:04 | 42.75169 | -89.96804 | 36960 ft | 504 kts | 52° |
| 2026-05-07 18:04 | 42.78926 | -89.88751 | 36943 ft | 504 kts | 52° |
| 2026-05-07 18:05 | 42.82666 | -89.80685 | 36948 ft | 504 kts | 52° |
| 2026-05-07 18:05 | 42.86410 | -89.72609 | 36949 ft | 504 kts | 52° |
| 2026-05-07 18:06 | 42.90151 | -89.64530 | 36950 ft | 504 kts | 52° |
| 2026-05-07 18:06 | 42.93876 | -89.56441 | 36910 ft | 505 kts | 52° |
| 2026-05-07 18:06 | 42.95743 | -89.52376 | 36661 ft | 504 kts | 52° |
| 2026-05-07 18:07 | 42.97604 | -89.48320 | 36412 ft | 504 kts | 52° |
| 2026-05-07 18:07 | 42.99464 | -89.44262 | 36167 ft | 504 kts | 52° |
| 2026-05-07 18:07 | 43.01322 | -89.40204 | 35660 ft | 505 kts | 52° |
| 2026-05-07 18:07 | 43.03211 | -89.36088 | 34609 ft | 515 kts | 52° |
| 2026-05-07 18:08 | 43.05124 | -89.31919 | 33760 ft | 519 kts | 52° |
| 2026-05-07 18:08 | 43.07029 | -89.27743 | 32965 ft | 517 kts | 52° |
| 2026-05-07 18:08 | 43.08928 | -89.23566 | 32172 ft | 516 kts | 52° |
| 2026-05-07 18:08 | 43.10806 | -89.19415 | 31469 ft | 512 kts | 52° |
| 2026-05-07 18:09 | 43.12668 | -89.15292 | 30660 ft | 507 kts | 52° |
| 2026-05-07 18:09 | 43.14507 | -89.11219 | 29785 ft | 500 kts | 52° |
| 2026-05-07 18:09 | 43.16287 | -89.07283 | 28974 ft | 489 kts | 52° |
| 2026-05-07 18:09 | 43.18063 | -89.03355 | 28342 ft | 476 kts | 52° |
| 2026-05-07 18:10 | 43.19782 | -88.99547 | 27724 ft | 463 kts | 52° |
| 2026-05-07 18:10 | 43.21449 | -88.95842 | 27120 ft | 451 kts | 52° |
| 2026-05-07 18:10 | 43.23076 | -88.92227 | 26541 ft | 440 kts | 52° |
| 2026-05-07 18:10 | 43.24668 | -88.88693 | 25960 ft | 430 kts | 52° |
| 2026-05-07 18:11 | 43.26220 | -88.85245 | 25440 ft | 420 kts | 52° |
| 2026-05-07 18:11 | 43.27228 | -88.83003 | 25075 ft | 415 kts | 53° |
| 2026-05-07 18:11 | 43.29230 | -88.78551 | 24383 ft | 404 kts | 53° |
| 2026-05-07 18:11 | 43.30690 | -88.75304 | 23904 ft | 396 kts | 53° |
| 2026-05-07 18:12 | 43.32124 | -88.72102 | 23412 ft | 389 kts | 53° |
| 2026-05-07 18:12 | 43.33522 | -88.68972 | 22924 ft | 379 kts | 53° |
| 2026-05-07 18:12 | 43.34883 | -88.65919 | 22493 ft | 372 kts | 53° |
| 2026-05-07 18:12 | 43.36237 | -88.62890 | 22055 ft | 372 kts | 53° |
| 2026-05-07 18:13 | 43.37585 | -88.59869 | 21618 ft | 370 kts | 53° |
| 2026-05-07 18:13 | 43.38909 | -88.56898 | 21178 ft | 368 kts | 53° |
| 2026-05-07 18:13 | 43.40243 | -88.53900 | 20730 ft | 367 kts | 53° |
| 2026-05-07 18:13 | 43.41569 | -88.50912 | 20277 ft | 366 kts | 53° |
| 2026-05-07 18:14 | 43.42892 | -88.47925 | 19814 ft | 365 kts | 54° |
| 2026-05-07 18:14 | 43.44386 | -88.45148 | 19352 ft | 357 kts | 40° |
| 2026-05-07 18:14 | 43.46286 | -88.43028 | 18910 ft | 347 kts | 25° |
| 2026-05-07 18:14 | 43.48443 | -88.41657 | 18474 ft | 337 kts | 11° |
| 2026-05-07 18:15 | 43.50702 | -88.41057 | 18009 ft | 327 kts | 357° |
| 2026-05-07 18:15 | 43.52938 | -88.41187 | 17568 ft | 317 kts | 345° |
| 2026-05-07 18:15 | 43.55072 | -88.41832 | 17234 ft | 312 kts | 341° |
| 2026-05-07 18:15 | 43.57185 | -88.42495 | 16846 ft | 311 kts | 341° |
| 2026-05-07 18:16 | 43.59297 | -88.43148 | 16455 ft | 310 kts | 342° |
| 2026-05-07 18:16 | 43.61401 | -88.43798 | 16054 ft | 309 kts | 342° |
| 2026-05-07 18:16 | 43.63496 | -88.44445 | 15671 ft | 308 kts | 342° |
| 2026-05-07 18:16 | 43.65587 | -88.45094 | 15277 ft | 307 kts | 342° |
| 2026-05-07 18:17 | 43.67671 | -88.45745 | 14902 ft | 306 kts | 342° |
| 2026-05-07 18:17 | 43.69718 | -88.46385 | 14513 ft | 305 kts | 342° |
| 2026-05-07 18:17 | 43.71815 | -88.47039 | 14123 ft | 305 kts | 342° |
| 2026-05-07 18:17 | 43.73883 | -88.47684 | 13726 ft | 304 kts | 342° |
| 2026-05-07 18:18 | 43.75940 | -88.48327 | 13316 ft | 302 kts | 342° |
| 2026-05-07 18:18 | 43.77957 | -88.48958 | 12926 ft | 300 kts | 342° |
| 2026-05-07 18:18 | 43.80012 | -88.49603 | 12534 ft | 298 kts | 342° |
| 2026-05-07 18:18 | 43.82006 | -88.50229 | 12151 ft | 297 kts | 342° |
| 2026-05-07 18:19 | 43.84014 | -88.50858 | 11765 ft | 296 kts | 342° |
| 2026-05-07 18:19 | 43.86016 | -88.51486 | 11371 ft | 295 kts | 342° |
| 2026-05-07 18:19 | 43.88014 | -88.52111 | 10969 ft | 294 kts | 342° |
| 2026-05-07 18:19 | 43.90003 | -88.52736 | 10576 ft | 292 kts | 342° |
| 2026-05-07 18:20 | 43.91971 | -88.53358 | 10332 ft | 286 kts | 342° |
| 2026-05-07 18:20 | 43.93885 | -88.53959 | 10153 ft | 277 kts | 342° |
| 2026-05-07 18:20 | 43.95732 | -88.54510 | 10017 ft | 268 kts | 346° |
| 2026-05-07 18:20 | 43.97581 | -88.54429 | 9901 ft | 267 kts | 7° |
| 2026-05-07 18:21 | 43.99297 | -88.53469 | 9772 ft | 266 kts | 28° |
| 2026-05-07 18:21 | 44.00661 | -88.51764 | 9627 ft | 264 kts | 50° |
| 2026-05-07 18:21 | 44.01621 | -88.49617 | 9438 ft | 260 kts | 57° |
| 2026-05-07 18:21 | 44.02534 | -88.47463 | 9145 ft | 257 kts | 57° |
| 2026-05-07 18:22 | 44.03446 | -88.45331 | 8825 ft | 256 kts | 56° |
| 2026-05-07 18:22 | 44.04049 | -88.43927 | 8610 ft | 255 kts | 56° |
| 2026-05-07 18:22 | 44.05250 | -88.41130 | 7915 ft | 259 kts | 56° |
| 2026-05-07 18:22 | 44.06179 | -88.38966 | 7345 ft | 260 kts | 56° |
| 2026-05-07 18:23 | 44.07089 | -88.36837 | 6968 ft | 252 kts | 56° |
| 2026-05-07 18:23 | 44.07964 | -88.34782 | 6637 ft | 243 kts | 57° |
| 2026-05-07 18:23 | 44.08836 | -88.32868 | 6325 ft | 231 kts | 47° |
| 2026-05-07 18:23 | 44.09970 | -88.31340 | 6030 ft | 222 kts | 31° |
| 2026-05-07 18:24 | 44.11301 | -88.30285 | 5706 ft | 220 kts | 20° |
| 2026-05-07 18:24 | 44.12662 | -88.29368 | 5402 ft | 220 kts | 20° |
| 2026-05-07 18:24 | 44.14024 | -88.28437 | 5091 ft | 215 kts | 21° |
| 2026-05-07 18:24 | 44.15366 | -88.27639 | 4794 ft | 203 kts | 4° |
| 2026-05-07 18:25 | 44.16669 | -88.27831 | 4532 ft | 180 kts | 329° |
| 2026-05-07 18:25 | 44.17563 | -88.28870 | 4416 ft | 162 kts | 302° |
| 2026-05-07 18:25 | 44.18084 | -88.30254 | 4128 ft | 161 kts | 294° |
| 2026-05-07 18:25 | 44.18578 | -88.31648 | 3883 ft | 159 kts | 294° |
| 2026-05-07 18:26 | 44.19064 | -88.33020 | 3661 ft | 156 kts | 293° |
| 2026-05-07 18:26 | 44.19538 | -88.34359 | 3448 ft | 153 kts | 293° |
| 2026-05-07 18:26 | 44.20005 | -88.35677 | 3246 ft | 150 kts | 293° |
| 2026-05-07 18:26 | 44.20463 | -88.36970 | 3040 ft | 148 kts | 293° |
| 2026-05-07 18:27 | 44.20911 | -88.38236 | 2851 ft | 143 kts | 293° |
| 2026-05-07 18:27 | 44.21338 | -88.39441 | 2656 ft | 134 kts | 293° |
| 2026-05-07 18:27 | 44.21736 | -88.40562 | 2491 ft | 125 kts | 293° |
| 2026-05-07 18:27 | 44.21988 | -88.41273 | 2376 ft | 123 kts | 293° |
| 2026-05-07 18:28 | 44.22485 | -88.42684 | 2154 ft | 121 kts | 293° |
| 2026-05-07 18:28 | 44.22857 | -88.43739 | 1977 ft | 121 kts | 293° |
| 2026-05-07 18:28 | 44.23224 | -88.44785 | 1813 ft | 119 kts | 293° |
| 2026-05-07 18:28 | 44.23592 | -88.45827 | 1650 ft | 120 kts | 293° |
| 2026-05-07 18:29 | 44.23977 | -88.46886 | 1479 ft | 124 kts | 292° |
| 2026-05-07 18:29 | 44.24364 | -88.47982 | 1314 ft | 128 kts | 290° |
| 2026-05-07 18:29 | 44.24747 | -88.49090 | 1141 ft | 128 kts | 292° |
| 2026-05-07 18:29 | 44.25079 | -88.50007 | 1015 ft | 128 kts | 292° |
| 2026-05-07 18:30 | 44.25414 | -88.50983 | 931 ft | 128 kts | 292° |
| 2026-05-07 18:30 | 44.25739 | -88.51910 | 897 ft | 72 kts | 297° |
| 2026-05-07 18:30 | 44.25870 | -88.52264 | 902 ft | 31 kts | 297° |
| 2026-05-07 18:30 | 44.25958 | -88.52460 | 905 ft | 18 kts | 339° |
| 2026-05-07 18:31 | 44.26020 | -88.52355 | 904 ft | 17 kts | 102° |
| 2026-05-07 18:31 | 44.25970 | -88.52205 | 902 ft | 19 kts | 116° |
| 2026-05-07 18:31 | 44.25906 | -88.52022 | 901 ft | 21 kts | 116° |
| 2026-05-07 18:31 | 44.25850 | -88.51858 | 900 ft | 17 kts | 115° |
| 2026-05-07 18:32 | 44.25844 | -88.51745 | 897 ft | 19 kts | 76° |
| 2026-05-07 18:32 | 44.25878 | -88.51568 | 889 ft | 16 kts | 75° |
| 2026-05-07 18:32 | 44.25902 | -88.51439 | 889 ft | 13 kts | 75° |
| 2026-05-07 18:32 | 44.25913 | -88.51334 | 888 ft | 9 kts | 69° |
| 2026-05-07 18:33 | 44.25958 | -88.51315 | 888 ft | 0 kts | 1° |
| 2026-05-07 18:33 | 44.25965 | -88.51315 | 888 ft | 2 kts | 1° |
| 2026-05-07 18:33 | 44.25968 | -88.51315 | 888 ft | 0 kts | 1° |